Time;durP1;ratioP1;P1;durP2;ratioP2;P2;SDS_P1;SDS_P2;PMS_P1;PMS_P2;Temp;Humidity;BMP_temperature;BMP_pressure;BME280_temperature;BME280_humidity;BME280_pressure;Samples;Min_cycle;Max_cycle;Signal;HPM_P1;HPM_P2
2022/07/01 00:00:20;;;;;;;29.73;19.52;;;;;;;22.61;62.66;101516.13;5080165;28;20047;-70
2022/07/01 00:02:45;;;;;;;28.77;17.67;;;;;;;23.27;59.84;101512.75;5091512;28;20020;-70
2022/07/01 00:05:10;;;;;;;29.42;19.27;;;;;;;22.40;64.48;101529.56;5076451;28;20052;-71
2022/07/01 00:07:36;;;;;;;31.52;19.58;;;;;;;22.14;66.25;101522.81;5086928;28;20107;-70
2022/07/01 00:10:03;;;;;;;31.17;19.00;;;;;;;22.28;66.41;101522.97;5080155;28;20024;-70
2022/07/01 00:12:28;;;;;;;33.45;19.67;;;;;;;21.68;70.89;101536.47;5090649;28;20517;-71
2022/07/01 00:14:54;;;;;;;32.20;20.23;;;;;;;21.34;74.56;101535.28;5079834;28;20032;-70
2022/07/01 00:17:19;;;;;;;34.92;20.75;;;;;;;21.22;75.18;101525.19;5070857;28;20021;-70
2022/07/01 00:19:44;;;;;;;30.25;18.65;;;;;;;22.38;65.70;101526.13;5076231;28;20391;-70
2022/07/01 00:22:10;;;;;;;33.13;18.75;;;;;;;21.85;69.66;101517.91;5082856;28;20103;-70
2022/07/01 00:24:36;;;;;;;33.70;20.30;;;;;;;21.96;70.30;101525.41;5086042;28;20027;-70
2022/07/01 00:27:02;;;;;;;32.13;19.30;;;;;;;21.62;72.94;101532.25;5076582;28;20333;-70
2022/07/01 00:29:27;;;;;;;37.50;19.95;;;;;;;22.69;65.09;101540.56;5072649;28;20084;-70
2022/07/01 00:31:52;;;;;;;31.75;19.50;;;;;;;21.27;70.54;101547.97;5070680;28;20023;-70
2022/07/01 00:34:18;;;;;;;33.80;19.52;;;;;;;21.56;74.02;101555.66;5072012;28;20166;-70
2022/07/01 00:36:43;;;;;;;32.65;19.27;;;;;;;21.31;73.73;101562.03;5070928;28;20024;-71
2022/07/01 00:39:08;;;;;;;34.72;18.63;;;;;;;22.92;62.46;101546.56;5072192;28;20027;-71
2022/07/01 00:41:34;;;;;;;33.45;19.23;;;;;;;23.24;59.45;101546.72;5070677;28;20056;-70
2022/07/01 00:43:59;;;;;;;30.77;18.80;;;;;;;23.05;59.28;101542.31;5078951;28;20119;-70
2022/07/01 00:46:25;;;;;;;34.72;20.02;;;;;;;24.21;53.36;101538.84;5090351;28;20024;-70
2022/07/01 00:48:53;;;;;;;33.70;18.95;;;;;;;22.75;60.12;101542.06;5088870;28;20032;-70
2022/07/01 00:51:19;;;;;;;29.77;18.02;;;;;;;23.86;55.43;101546.97;5089469;28;20020;-70
2022/07/01 00:53:45;;;;;;;32.28;17.83;;;;;;;23.10;56.03;101542.94;5088479;28;20028;-70
2022/07/01 00:56:10;;;;;;;27.70;17.20;;;;;;;22.87;59.41;101547.66;5090270;28;20024;-71
2022/07/01 00:58:37;;;;;;;28.08;17.92;;;;;;;23.41;56.34;101538.72;5072467;28;20112;-70
2022/07/01 01:01:02;;;;;;;30.40;17.02;;;;;;;22.69;59.84;101533.44;5089939;28;20498;-71
2022/07/01 01:03:27;;;;;;;32.47;19.02;;;;;;;22.20;62.55;101534.03;5081632;28;20020;-71
2022/07/01 01:05:56;;;;;;;31.15;18.60;;;;;;;22.59;62.02;101539.31;5070054;28;20054;-70
2022/07/01 01:08:22;;;;;;;28.30;17.58;;;;;;;23.04;60.65;101524.59;5075007;28;20024;-70
2022/07/01 01:10:48;;;;;;;30.13;17.63;;;;;;;23.80;54.83;101528.63;5089465;28;20401;-70
2022/07/01 01:13:13;;;;;;;30.42;17.30;;;;;;;24.10;53.20;101520.75;5090017;28;20327;-70
2022/07/01 01:15:39;;;;;;;30.20;18.25;;;;;;;22.80;60.23;101521.38;5073759;28;20798;-70
2022/07/01 01:18:05;;;;;;;29.45;17.17;;;;;;;23.54;55.64;101522.91;5070165;28;20039;-70
2022/07/01 01:20:37;;;;;;;30.73;17.25;;;;;;;23.46;56.28;101525.97;5089860;28;20020;-70
2022/07/01 01:23:04;;;;;;;29.13;18.00;;;;;;;23.28;54.13;101532.28;5082236;28;20025;-70
2022/07/01 01:25:31;;;;;;;36.60;17.77;;;;;;;23.95;53.64;101532.31;5075244;28;20055;-70
2022/07/01 01:27:56;;;;;;;29.15;16.92;;;;;;;22.42;59.46;101538.34;5086668;28;20024;-70
2022/07/01 01:30:22;;;;;;;28.90;18.02;;;;;;;23.82;53.53;101543.63;5071715;28;20029;-70
2022/07/01 01:32:47;;;;;;;33.03;17.25;;;;;;;23.72;53.77;101531.72;5071389;28;20484;-70
2022/07/01 01:35:13;;;;;;;26.08;16.95;;;;;;;23.35;55.27;101533.69;5071310;28;20024;-70
2022/07/01 01:37:38;;;;;;;30.25;17.38;;;;;;;23.75;53.15;101547.56;5070015;28;20017;-70
2022/07/01 01:40:04;;;;;;;27.45;17.48;;;;;;;23.91;52.41;101554.78;5072667;28;20601;-70
2022/07/01 01:42:30;;;;;;;29.52;16.35;;;;;;;23.93;51.84;101556.38;5086222;28;20101;-71
2022/07/01 01:44:56;;;;;;;28.85;17.90;;;;;;;24.04;50.90;101571.81;5070598;28;20028;-71
2022/07/01 01:47:22;;;;;;;31.40;18.50;;;;;;;22.71;57.85;101578.69;5070959;28;20477;-70
2022/07/01 01:49:47;;;;;;;26.98;17.63;;;;;;;22.29;59.48;101583.28;5074340;28;20032;-71
2022/07/01 01:52:12;;;;;;;27.40;16.38;;;;;;;23.03;56.10;101586.84;5069887;28;20032;-71
2022/07/01 01:54:38;;;;;;;27.50;16.98;;;;;;;23.05;58.22;101576.97;5081190;28;20024;-71
2022/07/01 01:57:04;;;;;;;26.88;17.35;;;;;;;22.11;62.55;101569.06;5069729;28;20497;-70
2022/07/01 01:59:30;;;;;;;25.63;16.05;;;;;;;22.74;60.61;101559.88;5069089;28;20048;-70
2022/07/01 02:01:55;;;;;;;27.92;15.68;;;;;;;22.93;56.79;101557.16;5090320;28;20070;-70
2022/07/01 02:04:23;;;;;;;25.13;16.33;;;;;;;23.62;54.03;101549.19;5088568;28;20017;-70
2022/07/01 02:06:49;;;;;;;28.55;16.23;;;;;;;23.70;53.19;101554.97;5090171;28;20456;-71
2022/07/01 02:09:15;;;;;;;27.33;14.90;;;;;;;23.02;53.27;101559.31;5074082;28;20077;-70
2022/07/01 02:11:40;;;;;;;25.55;14.70;;;;;;;24.03;52.04;101567.44;5072493;28;20115;-70
2022/07/01 02:14:05;;;;;;;26.73;15.05;;;;;;;24.10;51.88;101579.50;5081719;28;20101;-70
2022/07/01 02:16:31;;;;;;;28.30;15.30;;;;;;;23.82;51.30;101583.66;5073301;28;20024;-70
2022/07/01 02:18:57;;;;;;;26.33;14.90;;;;;;;23.36;54.58;101583.44;5090423;28;20024;-70
2022/07/01 02:21:22;;;;;;;32.17;16.58;;;;;;;23.44;53.66;101580.34;5079392;28;20480;-70
2022/07/01 02:23:47;;;;;;;25.02;14.98;;;;;;;23.61;52.11;101588.31;5089187;28;20020;-71
2022/07/01 02:26:13;;;;;;;24.90;14.77;;;;;;;23.66;50.95;101580.09;5093126;28;20107;-70
2022/07/01 02:28:38;;;;;;;26.38;15.18;;;;;;;23.84;50.91;101584.41;5090363;28;20153;-70
2022/07/01 02:31:03;;;;;;;23.77;14.10;;;;;;;24.62;48.28;101565.03;5092277;28;20387;-70
2022/07/01 02:33:29;;;;;;;26.38;14.68;;;;;;;23.68;50.59;101583.53;5091169;28;20024;-71
2022/07/01 02:35:55;;;;;;;24.30;16.08;;;;;;;23.70;50.47;101592.31;5074978;28;20029;-70
2022/07/01 02:38:20;;;;;;;25.80;15.60;;;;;;;24.08;50.17;101580.53;5087403;28;20475;-70
2022/07/01 02:40:45;;;;;;;26.38;15.15;;;;;;;23.53;51.05;101586.09;5092574;28;20016;-71
2022/07/01 02:43:11;;;;;;;27.73;13.77;;;;;;;23.57;50.92;101597.44;5090744;28;20565;-70
2022/07/01 02:45:36;;;;;;;27.15;15.00;;;;;;;23.82;50.86;101586.31;5094308;28;20076;-70
2022/07/01 02:48:01;;;;;;;27.25;14.63;;;;;;;24.19;49.49;101579.00;5077772;28;20027;-71
2022/07/01 02:50:27;;;;;;;24.83;15.23;;;;;;;24.38;48.58;101572.59;5081059;28;20078;-70
2022/07/01 02:52:53;;;;;;;24.95;15.20;;;;;;;24.54;48.26;101584.13;5092880;28;20055;-70
2022/07/01 02:55:18;;;;;;;23.65;14.52;;;;;;;23.98;49.63;101586.38;5093618;28;20024;-70
2022/07/01 02:57:44;;;;;;;25.13;14.75;;;;;;;24.10;49.53;101590.19;5079174;28;20032;-70
2022/07/01 03:00:12;;;;;;;27.27;14.73;;;;;;;23.62;51.21;101584.72;5072050;28;20031;-70
2022/07/01 03:02:38;;;;;;;25.58;14.73;;;;;;;22.70;54.25;101595.59;5072645;28;20039;-70
2022/07/01 03:05:04;;;;;;;32.88;14.95;;;;;;;23.60;51.18;101601.75;5074490;28;20020;-70
2022/07/01 03:07:30;;;;;;;20.23;13.18;;;;;;;23.92;49.88;101607.19;5088674;28;20116;-70
2022/07/01 03:09:56;;;;;;;21.42;14.02;;;;;;;23.33;51.91;101594.25;5087769;28;20152;-70
2022/07/01 03:12:24;;;;;;;23.80;14.05;;;;;;;23.39;52.18;101588.59;5092807;28;20026;-70
2022/07/01 03:15:06;;;;;;;27.23;15.23;;;;;;;23.27;51.77;101573.22;5092349;28;20107;-71
2022/07/01 03:17:34;;;;;;;24.38;14.18;;;;;;;22.13;58.71;101564.53;5076386;28;20028;-70
2022/07/01 03:20:00;;;;;;;24.75;14.95;;;;;;;22.86;53.87;101569.91;5071508;28;20070;-71
2022/07/01 03:22:28;;;;;;;23.55;14.27;;;;;;;22.99;55.53;101574.63;5071822;28;20038;-70
2022/07/01 03:24:54;;;;;;;26.17;14.70;;;;;;;22.23;57.07;101566.75;5080297;28;20077;-71
2022/07/01 03:27:20;;;;;;;23.38;15.15;;;;;;;22.36;57.96;101581.25;5090526;28;20387;-72
2022/07/01 03:29:46;;;;;;;21.73;13.90;;;;;;;23.45;53.20;101584.75;5090013;28;20387;-71
2022/07/01 03:32:12;;;;;;;23.80;13.93;;;;;;;22.14;58.00;101581.38;5092762;28;20032;-71
2022/07/01 03:34:45;;;;;;;24.75;14.13;;;;;;;22.65;55.56;101597.63;5090407;28;20020;-72
2022/07/01 03:37:13;;;;;;;25.52;14.60;;;;;;;22.40;56.75;101595.28;5079874;28;20074;-71
2022/07/01 03:39:39;;;;;;;24.38;14.88;;;;;;;22.51;57.15;101596.47;5071788;28;20056;-71
2022/07/01 03:42:06;;;;;;;30.30;15.15;;;;;;;22.64;56.74;101593.22;5070933;28;20090;-71
2022/07/01 03:44:32;;;;;;;22.02;13.23;;;;;;;22.31;58.90;101599.19;5072101;28;20035;-71
2022/07/01 03:46:57;;;;;;;19.75;12.65;;;;;;;22.47;56.97;101594.91;5071581;28;20029;-71
2022/07/01 03:49:23;;;;;;;21.40;11.75;;;;;;;21.91;60.30;101606.38;5078014;28;20384;-72
2022/07/01 03:51:49;;;;;;;16.08;11.52;;;;;;;22.28;58.97;101610.00;5092205;28;20020;-71
2022/07/01 03:54:30;;;;;;;20.23;12.20;;;;;;;22.80;56.23;101615.50;5093234;28;20131;-71
2022/07/01 03:57:04;;;;;;;21.48;11.45;;;;;;;21.60;61.60;101629.06;5090298;28;20036;-71
2022/07/01 03:59:36;;;;;;;19.13;10.65;;;;;;;22.48;58.40;101617.94;5089972;28;20028;-71
2022/07/01 04:02:03;;;;;;;25.02;10.68;;;;;;;22.69;56.46;101620.50;5077578;28;20036;-71
2022/07/01 04:04:28;;;;;;;17.75;10.50;;;;;;;21.85;63.27;101618.16;5077349;28;20500;-71
2022/07/01 04:06:56;;;;;;;18.10;9.40;;;;;;;21.35;66.13;101635.41;5090815;28;20073;-71
2022/07/01 04:09:23;;;;;;;17.73;9.70;;;;;;;21.59;64.18;101633.50;5090875;28;20067;-72
2022/07/01 04:11:49;;;;;;;20.35;9.73;;;;;;;21.45;65.37;101620.75;5093112;28;20031;-71
2022/07/01 04:14:15;;;;;;;14.57;8.55;;;;;;;21.37;65.28;101628.22;5091886;28;20020;-71
2022/07/01 04:16:41;;;;;;;14.27;9.05;;;;;;;21.84;60.81;101622.63;5091101;28;20032;-71
2022/07/01 04:19:08;;;;;;;17.67;9.63;;;;;;;21.37;63.56;101625.53;5083243;28;20046;-71
2022/07/01 04:24:18;;;;;;;16.92;8.70;;;;;;;21.96;62.82;101620.34;5072234;28;20046;-71
2022/07/01 04:26:44;;;;;;;15.60;8.95;;;;;;;24.04;52.08;101634.09;5089964;28;20119;-71
2022/07/01 04:29:09;;;;;;;16.15;8.63;;;;;;;22.57;56.58;101653.91;5089907;28;20469;-71
2022/07/01 04:31:36;;;;;;;16.95;8.30;;;;;;;23.53;52.46;101644.78;5075907;28;20035;-71
2022/07/01 04:34:02;;;;;;;16.73;7.95;;;;;;;21.74;59.42;101655.91;5070175;28;20029;-71
2022/07/01 04:36:27;;;;;;;20.13;8.93;;;;;;;22.42;60.73;101646.66;5073911;28;20389;-71
2022/07/01 04:38:53;;;;;;;14.43;7.75;;;;;;;21.34;62.30;101638.97;5078063;28;20032;-71
2022/07/01 04:44:02;;;;;;;16.42;7.60;;;;;;;22.98;53.73;101655.53;5071763;28;20450;-71
2022/07/01 04:46:28;;;;;;;15.20;7.65;;;;;;;23.48;54.73;101657.47;5034105;28;20124;-71
2022/07/01 04:48:54;;;;;;;17.88;7.60;;;;;;;24.49;50.46;101645.00;5051180;28;20428;-72
2022/07/01 04:51:19;;;;;;;17.25;8.07;;;;;;;22.30;57.42;101646.28;5059750;28;20140;-71
2022/07/01 04:53:45;;;;;;;13.32;6.05;;;;;;;22.87;54.04;101638.28;5033957;28;20042;-71
2022/07/01 04:56:10;;;;;;;14.68;5.97;;;;;;;22.15;56.93;101647.00;5034286;28;20036;-71
2022/07/01 04:58:35;;;;;;;8.57;5.43;;;;;;;23.61;53.34;101654.19;5037360;28;20464;-71
2022/07/01 05:01:01;;;;;;;10.10;5.50;;;;;;;22.62;57.43;101657.22;5053720;28;20038;-72
2022/07/01 05:03:26;;;;;;;14.25;4.75;;;;;;;22.62;54.45;101656.38;5035524;28;20029;-71
2022/07/01 05:05:51;;;;;;;10.23;4.88;;;;;;;22.32;55.26;101675.50;5053941;28;20123;-72
2022/07/01 05:08:17;;;;;;;10.10;5.25;;;;;;;22.60;57.20;101668.91;5040778;28;20549;-71
2022/07/01 05:10:42;;;;;;;11.02;5.75;;;;;;;24.50;49.65;101668.09;5046562;28;20425;-71
2022/07/01 05:13:08;;;;;;;11.20;5.13;;;;;;;24.42;49.93;101659.66;5038730;28;20494;-72
2022/07/01 05:15:33;;;;;;;9.95;4.45;;;;;;;23.72;50.26;101675.81;5067540;28;20392;-71
2022/07/01 05:23:28;;;;;;;13.10;4.43;;;;;;;23.19;53.31;101672.28;5060515;28;20133;-70
2022/07/01 05:25:53;;;;;;;10.73;4.38;;;;;;;22.51;55.30;101668.41;5051989;28;20107;-70
2022/07/01 05:28:18;;;;;;;8.68;4.57;;;;;;;23.11;53.90;101664.66;5040579;28;20028;-71
2022/07/01 05:30:44;;;;;;;16.67;5.45;;;;;;;23.57;52.31;101657.94;5034379;28;20465;-70
2022/07/01 05:33:10;;;;;;;7.78;4.57;;;;;;;23.03;53.12;101666.84;5046845;28;20037;-71
2022/07/01 05:35:35;;;;;;;7.93;4.68;;;;;;;23.77;51.12;101679.13;5048126;28;20036;-71
2022/07/01 05:38:01;;;;;;;8.02;4.90;;;;;;;22.77;55.45;101674.28;5052431;28;20028;-70
2022/07/01 05:40:26;;;;;;;12.00;4.38;;;;;;;22.98;55.35;101669.69;5040986;28;20463;-70
2022/07/01 05:42:52;;;;;;;13.45;5.60;;;;;;;22.58;56.78;101682.28;5067294;28;20134;-70
2022/07/01 05:45:18;;;;;;;10.23;4.10;;;;;;;23.26;55.86;101681.72;5069678;28;20412;-70
2022/07/01 05:47:43;;;;;;;14.50;4.80;;;;;;;23.36;54.31;101663.44;5036085;28;20032;-69
2022/07/01 05:50:09;;;;;;;9.45;4.45;;;;;;;24.31;50.73;101662.06;5039378;28;20029;-69
2022/07/01 05:52:34;;;;;;;11.85;4.53;;;;;;;22.95;53.79;101669.00;5047777;28;20028;-70
2022/07/01 05:55:00;;;;;;;17.73;4.32;;;;;;;23.62;53.00;101664.75;5055469;28;20025;-70
2022/07/01 05:57:25;;;;;;;15.60;4.65;;;;;;;22.70;55.32;101670.19;5044284;28;20040;-71
2022/07/01 05:59:50;;;;;;;9.55;4.15;;;;;;;21.81;60.08;101675.97;5046234;28;20032;-70
2022/07/01 06:02:16;;;;;;;13.45;3.83;;;;;;;23.69;52.84;101662.66;5035778;28;20370;-70
2022/07/01 06:04:43;;;;;;;7.70;3.92;;;;;;;24.95;48.25;101662.06;5036024;28;20021;-71
2022/07/01 06:07:10;;;;;;;13.80;3.90;;;;;;;23.82;52.00;101674.41;5055349;28;20037;-70
2022/07/01 06:09:36;;;;;;;11.05;5.57;;;;;;;22.61;56.57;101670.63;5063799;28;20029;-70
2022/07/01 06:12:01;;;;;;;10.25;3.58;;;;;;;22.39;56.70;101674.28;5053016;28;20024;-70
2022/07/01 06:14:27;;;;;;;10.15;4.03;;;;;;;23.74;53.28;101676.63;5055412;28;20035;-69
2022/07/01 06:16:52;;;;;;;13.73;4.63;;;;;;;22.70;58.47;101678.19;5048884;28;20082;-69
2022/07/01 06:19:17;;;;;;;6.78;3.70;;;;;;;24.79;48.48;101670.97;5047650;28;20028;-70
2022/07/01 06:21:43;;;;;;;10.95;3.90;;;;;;;24.21;51.55;101672.38;5057847;28;20444;-69
2022/07/01 06:24:09;;;;;;;7.47;3.40;;;;;;;24.50;49.50;101684.13;5054216;28;20035;-69
2022/07/01 06:26:34;;;;;;;12.60;4.13;;;;;;;26.14;44.85;101679.97;5055044;28;20056;-69
2022/07/01 06:28:59;;;;;;;6.03;2.75;;;;;;;26.81;43.97;101675.78;5036271;28;20051;-70
2022/07/01 06:31:25;;;;;;;6.03;2.75;;;;;;;27.92;40.61;101665.59;5039948;28;20025;-70
2022/07/01 06:33:50;;;;;;;5.47;2.10;;;;;;;28.11;39.59;101673.25;5055499;28;20070;-70
2022/07/01 06:36:16;;;;;;;8.73;2.25;;;;;;;27.18;40.56;101671.50;5058633;28;20032;-70
2022/07/01 06:38:41;;;;;;;5.10;2.42;;;;;;;27.58;39.34;101674.16;5041024;28;20047;-70
2022/07/01 06:43:50;;;;;;;6.05;2.38;;;;;;;28.76;39.03;101663.19;5065563;28;20136;-70
2022/07/01 06:46:16;;;;;;;6.13;2.47;;;;;;;28.29;37.38;101662.13;5039679;28;20111;-71
2022/07/01 06:48:41;;;;;;;8.57;1.75;;;;;;;28.03;37.87;101667.56;5055290;28;20111;-70
2022/07/01 06:51:06;;;;;;;10.10;2.28;;;;;;;29.12;37.64;101666.78;5032923;28;20028;-70
2022/07/01 06:53:32;;;;;;;7.82;2.40;;;;;;;30.67;34.33;101660.09;5037809;28;20039;-70
2022/07/01 06:55:57;;;;;;;8.75;2.05;;;;;;;29.09;36.45;101661.63;5054411;28;20028;-71
2022/07/01 06:58:23;;;;;;;12.35;2.38;;;;;;;31.47;32.73;101653.38;5047051;28;20548;-70
2022/07/01 07:00:48;;;;;;;6.35;1.80;;;;;;;32.35;31.56;101669.19;5033807;28;20031;-70
2022/07/01 07:03:14;;;;;;;12.30;2.40;;;;;;;29.90;33.34;101673.38;5034616;28;20035;-71
2022/07/01 07:05:39;;;;;;;10.63;2.63;;;;;;;28.74;35.70;101679.44;5044670;28;20036;-70
2022/07/01 07:08:05;;;;;;;8.43;2.08;;;;;;;31.03;33.04;101674.22;5070230;28;20058;-70
2022/07/01 07:10:30;;;;;;;7.60;1.60;;;;;;;29.77;35.60;101688.75;5060207;28;21140;-70
2022/07/01 07:12:56;;;;;;;7.68;1.80;;;;;;;28.35;37.00;101680.50;5060805;28;20064;-70
2022/07/01 07:15:21;;;;;;;8.57;1.48;;;;;;;30.65;33.13;101683.63;5058728;28;21894;-70
2022/07/01 07:17:46;;;;;;;6.45;1.70;;;;;;;30.20;33.27;101690.78;5037627;28;20149;-71
2022/07/01 07:20:12;;;;;;;8.00;2.35;;;;;;;31.76;31.82;101687.84;5034685;28;20028;-70
2022/07/01 07:22:37;;;;;;;8.07;1.75;;;;;;;28.97;35.91;101684.09;5036356;28;20021;-70
2022/07/01 07:25:03;;;;;;;5.22;1.50;;;;;;;27.34;39.72;101697.28;5034888;28;20449;-70
2022/07/01 07:27:28;;;;;;;8.27;1.73;;;;;;;27.26;40.32;101690.63;5041238;28;20025;-70
2022/07/01 07:29:54;;;;;;;6.15;1.75;;;;;;;28.02;39.01;101695.38;5043816;28;20036;-69
2022/07/01 07:32:19;;;;;;;5.13;1.65;;;;;;;26.53;41.65;101697.16;5072713;28;20032;-70
2022/07/01 07:34:45;;;;;;;6.40;1.95;;;;;;;27.86;39.49;101698.25;5071767;28;20446;-70
2022/07/01 07:37:10;;;;;;;7.25;2.10;;;;;;;26.57;41.54;101700.47;5072015;28;20025;-70
2022/07/01 07:39:36;;;;;;;4.93;1.92;;;;;;;27.85;40.00;101712.63;5071135;28;20446;-70
2022/07/01 07:42:01;;;;;;;3.38;1.40;;;;;;;26.56;40.21;101713.03;5031109;28;1165361;-70
2022/07/01 07:44:27;;;;;;;4.18;1.10;;;;;;;25.33;43.03;101720.53;5073657;28;20037;-71
2022/07/01 07:46:53;;;;;;;3.03;0.88;;;;;;;24.12;42.08;101727.13;5072933;28;20025;-71
2022/07/01 07:49:18;;;;;;;5.78;1.27;;;;;;;25.66;39.57;101725.69;5055626;28;20040;-71
2022/07/01 07:51:44;;;;;;;4.35;1.00;;;;;;;28.49;35.84;101728.75;5055619;28;20036;-70
2022/07/01 07:54:09;;;;;;;4.55;1.23;;;;;;;29.31;34.76;101716.56;5072784;28;20052;-71
2022/07/01 07:56:34;;;;;;;5.70;0.90;;;;;;;29.37;34.40;101725.00;5073344;28;20047;-71
2022/07/01 07:59:00;;;;;;;1.42;0.82;;;;;;;30.99;30.48;101708.66;5055467;28;20113;-71
2022/07/01 08:01:25;;;;;;;5.88;0.90;;;;;;;30.68;31.22;101711.22;5054695;28;20025;-71
2022/07/01 08:03:51;;;;;;;9.23;1.30;;;;;;;30.15;32.02;101713.69;5073338;28;20089;-71
2022/07/01 08:06:17;;;;;;;9.02;1.42;;;;;;;31.46;31.40;101711.06;5073318;28;20024;-71
2022/07/01 08:08:43;;;;;;;2.38;0.75;;;;;;;32.64;30.68;101717.94;5054287;28;20023;-71
2022/07/01 08:11:08;;;;;;;4.03;0.60;;;;;;;33.21;27.95;101710.06;5072280;28;20039;-71
2022/07/01 08:13:33;;;;;;;4.43;1.25;;;;;;;32.06;29.95;101721.28;5055273;28;20126;-71
2022/07/01 08:16:00;;;;;;;6.90;1.10;;;;;;;30.44;31.01;101725.72;5054524;28;20032;-71
2022/07/01 08:18:25;;;;;;;4.03;0.73;;;;;;;30.22;31.41;101715.75;5055111;28;20362;-70
2022/07/01 08:20:54;;;;;;;1.33;0.80;;;;;;;28.56;33.39;101719.28;5072720;28;20022;-71
2022/07/01 08:23:20;;;;;;;3.67;0.60;;;;;;;29.31;32.59;101719.25;5072300;28;20073;-71
2022/07/01 08:25:47;;;;;;;1.75;0.60;;;;;;;27.31;36.24;101724.34;5055019;28;20444;-71
2022/07/01 08:28:12;;;;;;;8.90;1.10;;;;;;;27.81;36.71;101728.13;5072951;28;20020;-71
2022/07/01 08:30:38;;;;;;;6.72;1.25;;;;;;;28.84;35.17;101733.44;5071739;28;20046;-72
2022/07/01 08:33:04;;;;;;;4.95;1.00;;;;;;;29.59;32.71;101740.41;5054763;28;20059;-71
2022/07/01 08:35:29;;;;;;;5.22;1.08;;;;;;;31.04;32.12;101738.03;5054816;28;20487;-71
2022/07/01 08:37:56;;;;;;;3.55;0.90;;;;;;;29.11;33.06;101748.47;5054101;28;20056;-71
2022/07/01 08:40:24;;;;;;;2.88;0.80;;;;;;;30.09;33.03;101758.19;5054824;28;20460;-70
2022/07/01 08:42:50;;;;;;;5.05;1.00;;;;;;;30.99;31.07;101756.41;5072241;28;20055;-71
2022/07/01 08:45:15;;;;;;;7.82;2.53;;;;;;;32.67;30.35;101757.41;5071895;28;20024;-71
2022/07/01 08:48:00;;;;;;;4.55;1.27;;;;;;;32.96;28.20;101763.75;5054515;28;20024;-72
2022/07/01 08:50:27;;;;;;;4.90;0.80;;;;;;;31.64;31.23;101762.69;5053839;28;20024;-72
2022/07/01 08:52:53;;;;;;;3.95;1.00;;;;;;;30.82;31.60;101772.16;5072439;28;20029;-71
2022/07/01 08:55:20;;;;;;;5.43;1.48;;;;;;;30.49;31.86;101765.81;5054328;28;20525;-72
2022/07/01 08:57:45;;;;;;;6.43;1.58;;;;;;;29.92;33.88;101773.81;5071743;28;20468;-72
2022/07/01 09:00:11;;;;;;;8.00;1.20;;;;;;;32.29;31.07;101768.78;5054429;28;20027;-71
2022/07/01 09:02:57;;;;;;;3.05;0.80;;;;;;;31.13;28.79;101765.09;5054261;28;20545;-71
2022/07/01 09:05:24;;;;;;;4.95;1.58;;;;;;;33.29;26.36;101769.81;5053597;28;20027;-72
2022/07/01 09:07:56;;;;;;;3.78;0.88;;;;;;;29.84;29.27;101781.63;5053984;28;20025;-71
2022/07/01 09:10:22;;;;;;;8.77;0.95;;;;;;;30.22;30.20;101785.00;5072211;28;20024;-71
2022/07/01 09:12:48;;;;;;;4.68;0.63;;;;;;;33.80;25.90;101775.09;5071205;28;20348;-71
2022/07/01 09:15:25;;;;;;;6.55;1.20;;;;;;;31.00;28.55;101779.72;5054115;28;20025;-71
2022/07/01 09:17:51;;;;;;;4.68;0.73;;;;;;;34.66;25.05;101777.66;5072096;28;20063;-71
2022/07/01 09:20:44;;;;;;;4.65;0.85;;;;;;;31.39;27.21;101783.66;5071355;28;20472;-71
2022/07/01 09:23:15;;;;;;;4.53;1.00;;;;;;;33.02;25.69;101785.88;5049790;28;20048;-71
2022/07/01 09:25:43;;;;;;;5.78;0.80;;;;;;;34.86;25.67;101782.97;5053096;28;20016;-71
2022/07/01 09:28:13;;;;;;;5.72;0.90;;;;;;;32.61;26.00;101781.31;5072016;28;20028;-72
2022/07/01 09:30:41;;;;;;;5.20;0.90;;;;;;;34.24;25.30;101778.09;5054085;28;20491;-71
2022/07/01 09:33:15;;;;;;;4.32;0.75;;;;;;;34.17;24.50;101776.97;5071078;28;20115;-71
2022/07/01 09:35:42;;;;;;;5.65;1.05;;;;;;;34.49;24.46;101778.44;5053889;28;20036;-72
2022/07/01 09:38:11;;;;;;;6.20;1.15;;;;;;;33.65;25.17;101772.78;5053898;28;20067;-71
2022/07/01 09:41:11;;;;;;;2.45;0.80;;;;;;;34.37;25.00;101785.91;5070832;28;20020;-71
2022/07/01 09:43:37;;;;;;;3.00;1.00;;;;;;;33.68;23.29;101770.78;5053665;28;20063;-72
2022/07/01 09:46:08;;;;;;;6.00;1.30;;;;;;;32.30;25.53;101791.28;5071690;28;20024;-72
2022/07/01 09:48:33;;;;;;;4.18;0.70;;;;;;;31.32;28.15;101781.59;5052877;28;20025;-71
2022/07/01 09:51:00;;;;;;;4.70;0.93;;;;;;;30.33;28.94;101789.56;5053511;28;20586;-72
2022/07/01 09:53:25;;;;;;;6.10;0.80;;;;;;;29.98;29.42;101803.94;5070851;28;20519;-71
2022/07/01 09:55:51;;;;;;;3.00;0.68;;;;;;;29.56;29.93;101789.09;5071515;28;20029;-72
2022/07/01 09:58:17;;;;;;;2.95;0.77;;;;;;;30.44;30.05;101800.38;5053471;28;20033;-71
2022/07/01 10:00:43;;;;;;;4.40;1.00;;;;;;;31.90;27.70;101789.31;5052786;28;20024;-71
2022/07/01 10:03:10;;;;;;;5.15;0.55;;;;;;;32.45;27.67;101797.19;5053345;28;20032;-72
2022/07/01 10:05:44;;;;;;;4.13;0.90;;;;;;;30.26;29.21;101808.91;5053590;28;20459;-71
2022/07/01 10:08:37;;;;;;;5.03;1.00;;;;;;;32.07;27.15;101801.41;5052942;28;20110;-71
2022/07/01 10:11:27;;;;;;;2.97;0.70;;;;;;;31.48;26.93;101800.94;5053400;28;20048;-72
2022/07/01 10:13:53;;;;;;;2.15;0.70;;;;;;;30.32;28.55;101818.34;5053305;28;20021;-72
2022/07/01 10:16:19;;;;;;;4.32;0.70;;;;;;;30.01;29.77;101809.13;5052859;28;20484;-72
2022/07/01 10:18:45;;;;;;;2.97;0.90;;;;;;;28.53;30.06;101821.66;5053384;28;20549;-72
2022/07/01 10:21:26;;;;;;;1.45;0.70;;;;;;;28.89;30.69;101825.41;5053638;28;20020;-72
2022/07/01 10:23:51;;;;;;;4.93;0.80;;;;;;;30.48;28.48;101828.81;5052597;28;20039;-73
2022/07/01 10:26:18;;;;;;;2.45;0.60;;;;;;;30.47;27.63;101835.19;5053470;28;20032;-71
2022/07/01 10:28:45;;;;;;;1.88;0.50;;;;;;;32.19;26.42;101830.09;5070713;28;20383;-71
2022/07/01 10:31:16;;;;;;;3.60;0.60;;;;;;;31.74;26.30;101830.34;5053415;28;20475;-71
2022/07/01 10:33:49;;;;;;;3.60;0.70;;;;;;;30.08;27.84;101830.06;5055155;28;20434;-71
2022/07/01 10:36:16;;;;;;;2.15;0.60;;;;;;;31.22;26.15;101827.44;5056304;28;20043;-72
2022/07/01 10:39:00;;;;;;;1.58;0.60;;;;;;;32.84;24.80;101832.56;5057046;28;20484;-72
2022/07/01 10:41:27;;;;;;;3.35;0.70;;;;;;;30.03;26.79;101837.63;5074852;28;20024;-72
2022/07/01 10:43:58;;;;;;;6.07;0.68;;;;;;;30.85;26.67;101839.34;5055959;28;20480;-72
2022/07/01 10:46:41;;;;;;;1.40;0.32;;;;;;;29.76;27.03;101827.16;5056727;28;20024;-71
2022/07/01 10:49:14;;;;;;;3.28;0.50;;;;;;;29.94;27.86;101833.84;5056820;28;20029;-71
2022/07/01 10:51:57;;;;;;;3.70;0.60;;;;;;;29.04;28.84;101833.34;5056198;28;20056;-71
2022/07/01 10:54:39;;;;;;;2.30;0.60;;;;;;;29.61;27.06;101830.00;5074414;28;20017;-72
2022/07/01 10:57:16;;;;;;;5.20;0.68;;;;;;;31.25;25.14;101822.59;5056026;28;20028;-71
2022/07/01 10:59:52;;;;;;;4.40;0.68;;;;;;;28.55;27.87;101827.81;5056611;28;20023;-72
2022/07/01 11:02:19;;;;;;;2.88;0.40;;;;;;;31.18;26.23;101818.72;5056572;28;20028;-72
2022/07/01 11:04:45;;;;;;;2.63;0.70;;;;;;;28.46;28.64;101841.03;5055510;28;20492;-72
2022/07/01 11:07:11;;;;;;;3.20;0.60;;;;;;;31.54;25.86;101830.13;5056378;28;20032;-71
2022/07/01 11:09:37;;;;;;;5.00;1.05;;;;;;;31.78;25.71;101831.78;5056361;28;20515;-71
2022/07/01 11:12:03;;;;;;;4.03;0.65;;;;;;;30.32;26.64;101834.50;5055524;28;20028;-72
2022/07/01 11:14:28;;;;;;;2.55;0.60;;;;;;;30.78;25.68;101835.44;5074002;28;20046;-71
2022/07/01 11:16:55;;;;;;;3.28;0.63;;;;;;;29.26;26.59;101825.44;5056187;28;20024;-71
2022/07/01 11:19:20;;;;;;;3.45;1.55;;;;;;;29.42;27.28;101825.16;5055383;28;20079;-71
2022/07/01 11:21:50;;;;;;;4.18;0.60;;;;;;;28.77;28.58;101824.47;5056027;28;20518;-71
2022/07/01 11:24:20;;;;;;;3.70;0.50;;;;;;;29.73;28.13;101827.34;5056198;28;20127;-71
2022/07/01 11:26:46;;;;;;;2.83;0.63;;;;;;;27.70;29.11;101822.00;5055052;28;20028;-71
2022/07/01 11:29:12;;;;;;;2.05;0.80;;;;;;;28.29;28.50;101828.75;5073884;28;20020;-71